Omaha — WDC9423 — position and weather

sailwx.info

Track history (hours):
 
Tides and Currents Weather Stations Pressure Air Temp Water Temp Dewpoint Dewpoint Depression Visibility Wind Speed Wind Dir Waves Ship Positions

Omaha

Owner: Turn services, Inc, New Orleans, LA. More information available from US FCC via Universal Licensing System and Coast Guard Vessel Documentation Center.

Last reported at 2015-Mar-28 01:31 UTC. Time now 2015-Mar-28 12:21 UTC.
Position N 29°55' W 090°07'.

Length 13 m; draft 3.5 m.

Type: Pilot. MMSI: 367102030.

Date/timePositionNaut miles runAvg speedWind from/ knotsBaromVisibWave heightAir tempDewpointWater temp
2015-Mar-28 01:31N 29°55' W 090°07'5 5.2
2015-Mar-28 00:30N 29°57' W 090°01'5 0.2
2015-Mar-26 21:25N 29°55' W 089°56'0 0.1
2015-Mar-26 20:23N 29°55' W 089°56'0 0.0
2015-Mar-26 17:34N 29°55' W 089°56'0 0.0
2015-Mar-26 16:31N 29°55' W 089°56'3 2.7
2015-Mar-26 15:31N 29°56' W 089°59'2 0.7
2015-Mar-26 12:25N 29°55' W 089°56'1 0.0
2015-Mar-25 11:18N 29°55' W 089°56'3 0.3
2015-Mar-25 00:29N 29°56' W 089°59'1 0.1
2015-Mar-24 17:20N 29°57' W 090°00'4 1.0
2015-Mar-24 13:13N 29°55' W 089°56'4 1.0
2015-Mar-24 09:25N 29°56' W 089°60'1 0.2
2015-Mar-24 04:24N 29°56' W 089°59'1 1.1
2015-Mar-24 03:09N 29°57' W 090°00'1 0.0
2015-Mar-23 03:07N 29°56' W 089°59'3 0.2
2015-Mar-22 09:10N 29°55' W 089°56'0 0.2
2015-Mar-22 08:30N 29°55' W 089°56'3 0.7
2015-Mar-22 04:25N 29°56' W 089°59'7 7.0
2015-Mar-22 03:24N 29°54' W 090°07'2 2.7
2015-Mar-22 02:33N 29°55' W 090°05'4 3.5
2015-Mar-22 01:28N 29°57' W 090°01'4 3.9
2015-Mar-22 00:25N 29°55' W 089°56'0 0.0
2015-Mar-21 18:26N 29°55' W 089°56'2 0.1
2015-Mar-20 06:13N 29°56' W 089°59'2 0.4
2015-Mar-20 01:33N 29°55' W 089°56'2 2.1
2015-Mar-20 00:31N 29°56' W 089°59'3 2.7
2015-Mar-19 23:25N 29°55' W 089°56'3 0.9
2015-Mar-19 20:29N 29°56' W 089°59'1 0.6
2015-Mar-19 19:24N 29°56' W 089°58'  
Track history (hours):
 
Tides and Currents Weather Stations Pressure Air Temp Water Temp Dewpoint Dewpoint Depression Visibility Wind Speed Wind Dir Waves Ship Positions

Omaha

Owner: Turn services, Inc, New Orleans, LA. More information available from US FCC via Universal Licensing System and Coast Guard Vessel Documentation Center.

Last reported at 2015-Mar-28 01:31 UTC. Time now 2015-Mar-28 12:21 UTC.
Position N 29°55' W 090°07'.

Length 13 m; draft 3.5 m.

Type: Pilot. MMSI: 367102030.

Date/timePositionNaut miles runAvg speedWind from/ knotsBaromVisibWave heightAir tempDewpointWater temp
2015-Mar-28 01:31N 29°55' W 090°07'5 5.2
2015-Mar-28 00:30N 29°57' W 090°01'5 0.2
2015-Mar-26 21:25N 29°55' W 089°56'0 0.1
2015-Mar-26 20:23N 29°55' W 089°56'0 0.0
2015-Mar-26 17:34N 29°55' W 089°56'0 0.0
2015-Mar-26 16:31N 29°55' W 089°56'3 2.7
2015-Mar-26 15:31N 29°56' W 089°59'2 0.7
2015-Mar-26 12:25N 29°55' W 089°56'1 0.0
2015-Mar-25 11:18N 29°55' W 089°56'3 0.3
2015-Mar-25 00:29N 29°56' W 089°59'1 0.1
2015-Mar-24 17:20N 29°57' W 090°00'4 1.0
2015-Mar-24 13:13N 29°55' W 089°56'4 1.0
2015-Mar-24 09:25N 29°56' W 089°60'1 0.2
2015-Mar-24 04:24N 29°56' W 089°59'1 1.1
2015-Mar-24 03:09N 29°57' W 090°00'1 0.0
2015-Mar-23 03:07N 29°56' W 089°59'3 0.2
2015-Mar-22 09:10N 29°55' W 089°56'0 0.2
2015-Mar-22 08:30N 29°55' W 089°56'3 0.7
2015-Mar-22 04:25N 29°56' W 089°59'7 7.0
2015-Mar-22 03:24N 29°54' W 090°07'2 2.7
2015-Mar-22 02:33N 29°55' W 090°05'4 3.5
2015-Mar-22 01:28N 29°57' W 090°01'4 3.9
2015-Mar-22 00:25N 29°55' W 089°56'0 0.0
2015-Mar-21 18:26N 29°55' W 089°56'2 0.1
2015-Mar-20 06:13N 29°56' W 089°59'2 0.4
2015-Mar-20 01:33N 29°55' W 089°56'2 2.1
2015-Mar-20 00:31N 29°56' W 089°59'3 2.7
2015-Mar-19 23:25N 29°55' W 089°56'3 0.9
2015-Mar-19 20:29N 29°56' W 089°59'1 0.6
2015-Mar-19 19:24N 29°56' W 089°58'  

Dump ship's entire track history